sensor_id;sensor_type;location;lat;lon;timestamp;pressure;altitude;pressure_sealevel;temperature;humidity
14594;BME280;7383;52.354;9.756;2023-03-18T00:01:31;-12697.69;;;13.95;100.00
14594;BME280;7383;52.354;9.756;2023-03-18T00:03:58;-12697.88;;;13.96;100.00
14594;BME280;7383;52.354;9.756;2023-03-18T00:06:25;-12697.69;;;13.95;100.00
14594;BME280;7383;52.354;9.756;2023-03-18T00:08:52;-12696.91;;;13.91;100.00
14594;BME280;7383;52.354;9.756;2023-03-18T00:11:19;-12696.56;;;13.89;100.00
14594;BME280;7383;52.354;9.756;2023-03-18T00:13:47;-12695.97;;;13.85;100.00
14594;BME280;7383;52.354;9.756;2023-03-18T00:16:15;-12695.44;;;13.82;100.00
14594;BME280;7383;52.354;9.756;2023-03-18T00:18:41;-12694.56;;;13.77;100.00
14594;BME280;7383;52.354;9.756;2023-03-18T00:21:08;-12694.47;;;13.76;100.00
14594;BME280;7383;52.354;9.756;2023-03-18T00:23:35;-12693.97;;;13.73;100.00
14594;BME280;7383;52.354;9.756;2023-03-18T00:26:03;-12694.06;;;13.74;100.00
14594;BME280;7383;52.354;9.756;2023-03-18T00:28:31;-12694.22;;;13.75;100.00
14594;BME280;7383;52.354;9.756;2023-03-18T00:31:02;-12694.22;;;13.75;100.00
14594;BME280;7383;52.354;9.756;2023-03-18T00:33:30;-12694.31;;;13.75;100.00
14594;BME280;7383;52.354;9.756;2023-03-18T00:35:57;-12693.78;;;13.72;100.00
14594;BME280;7383;52.354;9.756;2023-03-18T00:38:23;-12693.88;;;13.73;100.00
14594;BME280;7383;52.354;9.756;2023-03-18T00:40:51;-12693.78;;;13.72;100.00
14594;BME280;7383;52.354;9.756;2023-03-18T00:43:26;-12693.88;;;13.73;100.00
14594;BME280;7383;52.354;9.756;2023-03-18T00:45:56;-12693.69;;;13.72;100.00
14594;BME280;7383;52.354;9.756;2023-03-18T00:48:24;-12693.19;;;13.69;100.00
14594;BME280;7383;52.354;9.756;2023-03-18T00:50:52;-12693.44;;;13.70;100.00
14594;BME280;7383;52.354;9.756;2023-03-18T00:53:18;-12693.34;;;13.70;100.00
14594;BME280;7383;52.354;9.756;2023-03-18T00:55:45;-12693.53;;;13.71;100.00
14594;BME280;7383;52.354;9.756;2023-03-18T00:58:12;-12693.69;;;13.72;100.00
14594;BME280;7383;52.354;9.756;2023-03-18T01:00:39;-12693.53;;;13.71;100.00
14594;BME280;7383;52.354;9.756;2023-03-18T01:03:06;-12693.34;;;13.70;100.00
14594;BME280;7383;52.354;9.756;2023-03-18T01:05:34;-12693.69;;;13.72;100.00
14594;BME280;7383;52.354;9.756;2023-03-18T01:08:03;-12693.63;;;13.71;100.00
14594;BME280;7383;52.354;9.756;2023-03-18T01:10:30;-12693.53;;;13.71;100.00
14594;BME280;7383;52.354;9.756;2023-03-18T01:12:59;-12693.34;;;13.70;100.00
14594;BME280;7383;52.354;9.756;2023-03-18T01:15:25;-12693.34;;;13.70;100.00
14594;BME280;7383;52.354;9.756;2023-03-18T01:17:52;-12693.34;;;13.70;100.00
14594;BME280;7383;52.354;9.756;2023-03-18T01:20:21;-12693.53;;;13.71;100.00
14594;BME280;7383;52.354;9.756;2023-03-18T01:22:48;-12693.53;;;13.71;100.00
14594;BME280;7383;52.354;9.756;2023-03-18T01:25:17;-12693.28;;;13.69;100.00
14594;BME280;7383;52.354;9.756;2023-03-18T01:27:43;-12693.28;;;13.69;100.00
14594;BME280;7383;52.354;9.756;2023-03-18T01:30:11;-12693.19;;;13.69;100.00
14594;BME280;7383;52.354;9.756;2023-03-18T01:32:38;-12692.75;;;13.66;100.00
14594;BME280;7383;52.354;9.756;2023-03-18T01:35:06;-12692.22;;;13.63;100.00
14594;BME280;7383;52.354;9.756;2023-03-18T01:37:32;-12691.69;;;13.60;100.00
14594;BME280;7383;52.354;9.756;2023-03-18T01:39:59;-12691.78;;;13.61;100.00
14594;BME280;7383;52.354;9.756;2023-03-18T01:42:29;-12691.97;;;13.62;100.00
14594;BME280;7383;52.354;9.756;2023-03-18T01:45:14;-12691.78;;;13.61;100.00
14594;BME280;7383;52.354;9.756;2023-03-18T01:47:42;-12691.63;;;13.60;100.00
14594;BME280;7383;52.354;9.756;2023-03-18T01:50:11;-12691.63;;;13.60;100.00
14594;BME280;7383;52.354;9.756;2023-03-18T01:52:39;-12691.53;;;13.59;100.00
14594;BME280;7383;52.354;9.756;2023-03-18T01:55:09;-12691.78;;;13.61;100.00
14594;BME280;7383;52.354;9.756;2023-03-18T01:57:39;-12691.78;;;13.61;100.00
14594;BME280;7383;52.354;9.756;2023-03-18T02:00:09;-12691.09;;;13.57;100.00
14594;BME280;7383;52.354;9.756;2023-03-18T02:02:38;-12691.28;;;13.58;100.00
14594;BME280;7383;52.354;9.756;2023-03-18T02:05:06;-12691.00;;;13.56;100.00
14594;BME280;7383;52.354;9.756;2023-03-18T02:07:36;-12691.00;;;13.56;100.00
14594;BME280;7383;52.354;9.756;2023-03-18T02:10:07;-12691.19;;;13.57;100.00
14594;BME280;7383;52.354;9.756;2023-03-18T02:12:38;-12690.56;;;13.54;100.00
14594;BME280;7383;52.354;9.756;2023-03-18T02:15:07;-12689.63;;;13.48;100.00
14594;BME280;7383;52.354;9.756;2023-03-18T02:17:39;-12688.75;;;13.43;100.00
14594;BME280;7383;52.354;9.756;2023-03-18T02:20:15;-12687.78;;;13.38;100.00
14594;BME280;7383;52.354;9.756;2023-03-18T02:22:47;-12687.34;;;13.35;100.00
14594;BME280;7383;52.354;9.756;2023-03-18T02:25:24;-12687.53;;;13.36;100.00
14594;BME280;7383;52.354;9.756;2023-03-18T02:27:56;-12687.19;;;13.34;100.00
14594;BME280;7383;52.354;9.756;2023-03-18T02:30:26;-12686.91;;;13.32;100.00
14594;BME280;7383;52.354;9.756;2023-03-18T02:32:55;-12687.44;;;13.36;100.00
14594;BME280;7383;52.354;9.756;2023-03-18T02:35:23;-12686.84;;;13.32;100.00
14594;BME280;7383;52.354;9.756;2023-03-18T02:37:50;-12686.91;;;13.32;100.00
14594;BME280;7383;52.354;9.756;2023-03-18T02:40:21;-12686.41;;;13.29;100.00
14594;BME280;7383;52.354;9.756;2023-03-18T02:42:47;-12686.56;;;13.30;100.00
14594;BME280;7383;52.354;9.756;2023-03-18T02:45:25;-12686.41;;;13.29;100.00
14594;BME280;7383;52.354;9.756;2023-03-18T02:47:56;-12686.22;;;13.28;100.00
14594;BME280;7383;52.354;9.756;2023-03-18T02:50:24;-12685.44;;;13.24;100.00
14594;BME280;7383;52.354;9.756;2023-03-18T02:52:50;-12685.00;;;13.21;100.00
14594;BME280;7383;52.354;9.756;2023-03-18T02:55:17;-12685.19;;;13.22;100.00
14594;BME280;7383;52.354;9.756;2023-03-18T02:57:43;-12685.19;;;13.22;100.00
14594;BME280;7383;52.354;9.756;2023-03-18T03:00:11;-12685.53;;;13.24;100.00
14594;BME280;7383;52.354;9.756;2023-03-18T03:02:39;-12685.63;;;13.25;100.00
14594;BME280;7383;52.354;9.756;2023-03-18T03:05:06;-12685.44;;;13.24;100.00
14594;BME280;7383;52.354;9.756;2023-03-18T03:07:33;-12684.91;;;13.21;100.00
14594;BME280;7383;52.354;9.756;2023-03-18T03:10:00;-12684.50;;;13.18;100.00
14594;BME280;7383;52.354;9.756;2023-03-18T03:12:27;-12684.50;;;13.18;100.00
14594;BME280;7383;52.354;9.756;2023-03-18T03:18:16;-12685.53;;;13.24;100.00
14594;BME280;7383;52.354;9.756;2023-03-18T03:20:43;-12685.34;;;13.23;100.00
14594;BME280;7383;52.354;9.756;2023-03-18T03:23:12;-12685.00;;;13.21;100.00
14594;BME280;7383;52.354;9.756;2023-03-18T03:25:40;-12684.22;;;13.17;100.00
14594;BME280;7383;52.354;9.756;2023-03-18T03:28:07;-12683.78;;;13.14;100.00
14594;BME280;7383;52.354;9.756;2023-03-18T03:30:34;-12682.84;;;13.09;100.00
14594;BME280;7383;52.354;9.756;2023-03-18T03:33:01;-12682.13;;;13.05;100.00
14594;BME280;7383;52.354;9.756;2023-03-18T03:35:29;-12681.19;;;12.99;100.00
14594;BME280;7383;52.354;9.756;2023-03-18T03:37:55;-12680.66;;;12.96;100.00
14594;BME280;7383;52.354;9.756;2023-03-18T03:40:22;-12679.34;;;12.89;100.00
14594;BME280;7383;52.354;9.756;2023-03-18T03:42:49;-12679.00;;;12.87;100.00
14594;BME280;7383;52.354;9.756;2023-03-18T03:45:16;-12678.56;;;12.84;100.00
14594;BME280;7383;52.354;9.756;2023-03-18T03:47:43;-12677.88;;;12.80;100.00
14594;BME280;7383;52.354;9.756;2023-03-18T03:50:12;-12676.56;;;12.72;100.00
14594;BME280;7383;52.354;9.756;2023-03-18T03:52:40;-12675.34;;;12.65;100.00
14594;BME280;7383;52.354;9.756;2023-03-18T03:55:10;-12675.59;;;12.67;100.00
14594;BME280;7383;52.354;9.756;2023-03-18T03:57:37;-12675.44;;;12.66;100.00
14594;BME280;7383;52.354;9.756;2023-03-18T04:00:07;-12675.59;;;12.67;100.00
14594;BME280;7383;52.354;9.756;2023-03-18T04:02:34;-12675.97;;;12.69;100.00
14594;BME280;7383;52.354;9.756;2023-03-18T04:05:01;-12675.53;;;12.66;100.00
14594;BME280;7383;52.354;9.756;2023-03-18T04:07:28;-12675.09;;;12.64;100.00
14594;BME280;7383;52.354;9.756;2023-03-18T04:09:55;-12675.00;;;12.63;100.00
14594;BME280;7383;52.354;9.756;2023-03-18T04:12:22;-12674.31;;;12.59;100.00
14594;BME280;7383;52.354;9.756;2023-03-18T04:14:49;-12673.97;;;12.57;100.00
14594;BME280;7383;52.354;9.756;2023-03-18T04:17:15;-12673.59;;;12.55;100.00
14594;BME280;7383;52.354;9.756;2023-03-18T04:19:42;-12673.69;;;12.56;100.00
14594;BME280;7383;52.354;9.756;2023-03-18T04:22:08;-12673.69;;;12.56;100.00
14594;BME280;7383;52.354;9.756;2023-03-18T04:24:34;-12673.88;;;12.57;100.00
14594;BME280;7383;52.354;9.756;2023-03-18T04:27:03;-12673.69;;;12.56;100.00
14594;BME280;7383;52.354;9.756;2023-03-18T04:29:30;-12673.69;;;12.56;100.00
14594;BME280;7383;52.354;9.756;2023-03-18T04:31:56;-12672.91;;;12.51;100.00
14594;BME280;7383;52.354;9.756;2023-03-18T04:34:23;-12671.59;;;12.44;100.00
14594;BME280;7383;52.354;9.756;2023-03-18T04:36:49;-12671.16;;;12.41;100.00
14594;BME280;7383;52.354;9.756;2023-03-18T04:39:16;-12669.84;;;12.33;100.00
14594;BME280;7383;52.354;9.756;2023-03-18T04:41:43;-12669.06;;;12.29;100.00
14594;BME280;7383;52.354;9.756;2023-03-18T04:44:10;-12667.84;;;12.22;100.00
14594;BME280;7383;52.354;9.756;2023-03-18T04:46:37;-12667.41;;;12.19;100.00
14594;BME280;7383;52.354;9.756;2023-03-18T04:49:04;-12666.63;;;12.15;100.00
14594;BME280;7383;52.354;9.756;2023-03-18T04:51:30;-12666.72;;;12.15;100.00
14594;BME280;7383;52.354;9.756;2023-03-18T04:53:57;-12667.06;;;12.17;100.00
14594;BME280;7383;52.354;9.756;2023-03-18T04:56:23;-12667.34;;;12.19;100.00
14594;BME280;7383;52.354;9.756;2023-03-18T04:58:50;-12667.00;;;12.17;100.00
14594;BME280;7383;52.354;9.756;2023-03-18T05:01:18;-12667.06;;;12.17;100.00
14594;BME280;7383;52.354;9.756;2023-03-18T05:03:44;-12667.25;;;12.18;100.00
14594;BME280;7383;52.354;9.756;2023-03-18T05:06:20;-12667.16;;;12.18;100.00
14594;BME280;7383;52.354;9.756;2023-03-18T05:08:47;-12667.16;;;12.18;100.00
14594;BME280;7383;52.354;9.756;2023-03-18T05:11:15;-12666.81;;;12.16;100.00
14594;BME280;7383;52.354;9.756;2023-03-18T05:13:41;-12666.81;;;12.16;100.00
14594;BME280;7383;52.354;9.756;2023-03-18T05:16:08;-12666.56;;;12.14;100.00
14594;BME280;7383;52.354;9.756;2023-03-18T05:18:36;-12666.28;;;12.13;100.00
14594;BME280;7383;52.354;9.756;2023-03-18T05:21:06;-12665.94;;;12.11;100.00
14594;BME280;7383;52.354;9.756;2023-03-18T05:23:33;-12665.59;;;12.09;100.00
14594;BME280;7383;52.354;9.756;2023-03-18T05:26:00;-12665.25;;;12.07;100.00
14594;BME280;7383;52.354;9.756;2023-03-18T05:28:26;-12664.38;;;12.02;100.00
14594;BME280;7383;52.354;9.756;2023-03-18T05:30:52;-12663.94;;;11.99;100.00
14594;BME280;7383;52.354;9.756;2023-03-18T05:33:19;-12664.47;;;12.02;100.00
14594;BME280;7383;52.354;9.756;2023-03-18T05:35:47;-12664.28;;;12.01;100.00
14594;BME280;7383;52.354;9.756;2023-03-18T05:38:14;-12663.94;;;11.99;100.00
14594;BME280;7383;52.354;9.756;2023-03-18T05:40:40;-12663.84;;;11.99;100.00
14594;BME280;7383;52.354;9.756;2023-03-18T05:43:07;-12663.69;;;11.98;100.00
14594;BME280;7383;52.354;9.756;2023-03-18T05:45:34;-12663.94;;;11.99;100.00
14594;BME280;7383;52.354;9.756;2023-03-18T05:48:01;-12663.75;;;11.98;100.00
14594;BME280;7383;52.354;9.756;2023-03-18T05:50:29;-12664.13;;;12.00;100.00
14594;BME280;7383;52.354;9.756;2023-03-18T05:52:57;-12664.13;;;12.00;100.00
14594;BME280;7383;52.354;9.756;2023-03-18T05:55:23;-12663.69;;;11.98;100.00
14594;BME280;7383;52.354;9.756;2023-03-18T05:57:49;-12663.75;;;11.98;100.00
14594;BME280;7383;52.354;9.756;2023-03-18T06:00:17;-12664.13;;;12.00;100.00
14594;BME280;7383;52.354;9.756;2023-03-18T06:02:44;-12664.13;;;12.00;100.00
14594;BME280;7383;52.354;9.756;2023-03-18T06:05:11;-12664.28;;;12.01;100.00
14594;BME280;7383;52.354;9.756;2023-03-18T06:07:39;-12664.63;;;12.03;100.00
14594;BME280;7383;52.354;9.756;2023-03-18T06:10:08;-12664.97;;;12.05;100.00
14594;BME280;7383;52.354;9.756;2023-03-18T06:12:35;-12665.50;;;12.08;100.00
14594;BME280;7383;52.354;9.756;2023-03-18T06:15:01;-12665.94;;;12.11;100.00
14594;BME280;7383;52.354;9.756;2023-03-18T06:17:28;-12666.47;;;12.14;100.00
14594;BME280;7383;52.354;9.756;2023-03-18T06:19:55;-12667.16;;;12.18;100.00
14594;BME280;7383;52.354;9.756;2023-03-18T06:22:23;-12667.34;;;12.19;100.00
14594;BME280;7383;52.354;9.756;2023-03-18T06:24:50;-12667.34;;;12.19;100.00
14594;BME280;7383;52.354;9.756;2023-03-18T06:27:18;-12667.25;;;12.18;100.00
14594;BME280;7383;52.354;9.756;2023-03-18T06:29:44;-12667.50;;;12.20;100.00
14594;BME280;7383;52.354;9.756;2023-03-18T06:32:11;-12667.50;;;12.20;100.00
14594;BME280;7383;52.354;9.756;2023-03-18T06:34:37;-12667.34;;;12.19;100.00
14594;BME280;7383;52.354;9.756;2023-03-18T06:37:04;-12667.59;;;12.20;100.00
14594;BME280;7383;52.354;9.756;2023-03-18T06:39:32;-12667.41;;;12.19;100.00
14594;BME280;7383;52.354;9.756;2023-03-18T06:41:58;-12667.25;;;12.18;100.00
14594;BME280;7383;52.354;9.756;2023-03-18T06:44:26;-12667.78;;;12.21;100.00
14594;BME280;7383;52.354;9.756;2023-03-18T06:46:53;-12667.78;;;12.21;100.00
14594;BME280;7383;52.354;9.756;2023-03-18T06:49:19;-12667.41;;;12.19;100.00
14594;BME280;7383;52.354;9.756;2023-03-18T06:51:45;-12667.69;;;12.21;100.00
14594;BME280;7383;52.354;9.756;2023-03-18T06:54:12;-12668.22;;;12.24;100.00
14594;BME280;7383;52.354;9.756;2023-03-18T06:56:39;-12668.56;;;12.26;100.00
14594;BME280;7383;52.354;9.756;2023-03-18T06:59:07;-12669.16;;;12.29;100.00
14594;BME280;7383;52.354;9.756;2023-03-18T07:01:35;-12670.56;;;12.38;100.00
14594;BME280;7383;52.354;9.756;2023-03-18T07:04:02;-12671.09;;;12.41;100.00
14594;BME280;7383;52.354;9.756;2023-03-18T07:06:30;-12671.25;;;12.42;100.00
14594;BME280;7383;52.354;9.756;2023-03-18T07:08:57;-12671.44;;;12.43;100.00
14594;BME280;7383;52.354;9.756;2023-03-18T07:11:25;-12671.50;;;12.43;100.00
14594;BME280;7383;52.354;9.756;2023-03-18T07:13:52;-12672.22;;;12.47;100.00
14594;BME280;7383;52.354;9.756;2023-03-18T07:16:18;-12673.00;;;12.52;100.00
14594;BME280;7383;52.354;9.756;2023-03-18T07:18:46;-12673.59;;;12.55;100.00
14594;BME280;7383;52.354;9.756;2023-03-18T07:21:13;-12673.78;;;12.56;100.00
14594;BME280;7383;52.354;9.756;2023-03-18T07:23:41;-12673.69;;;12.56;100.00
14594;BME280;7383;52.354;9.756;2023-03-18T07:26:08;-12673.44;;;12.54;100.00
14594;BME280;7383;52.354;9.756;2023-03-18T07:28:36;-12675.09;;;12.64;100.00
14594;BME280;7383;52.354;9.756;2023-03-18T07:31:06;-12675.25;;;12.65;100.00
14594;BME280;7383;52.354;9.756;2023-03-18T07:33:32;-12675.19;;;12.64;100.00
14594;BME280;7383;52.354;9.756;2023-03-18T07:36:00;-12674.75;;;12.62;100.00
14594;BME280;7383;52.354;9.756;2023-03-18T07:38:27;-12673.97;;;12.57;100.00
14594;BME280;7383;52.354;9.756;2023-03-18T07:40:53;-12673.97;;;12.57;100.00
14594;BME280;7383;52.354;9.756;2023-03-18T07:43:20;-12673.88;;;12.57;100.00
14594;BME280;7383;52.354;9.756;2023-03-18T07:45:47;-12674.13;;;12.58;100.00
14594;BME280;7383;52.354;9.756;2023-03-18T07:48:13;-12674.81;;;12.62;100.00
14594;BME280;7383;52.354;9.756;2023-03-18T07:50:40;-12674.81;;;12.62;100.00
14594;BME280;7383;52.354;9.756;2023-03-18T07:53:07;-12674.66;;;12.61;100.00
14594;BME280;7383;52.354;9.756;2023-03-18T07:55:34;-12675.00;;;12.63;100.00
14594;BME280;7383;52.354;9.756;2023-03-18T07:58:01;-12676.13;;;12.70;100.00
14594;BME280;7383;52.354;9.756;2023-03-18T08:00:28;-12677.25;;;12.76;100.00
14594;BME280;7383;52.354;9.756;2023-03-18T08:02:55;-12677.69;;;12.79;100.00
14594;BME280;7383;52.354;9.756;2023-03-18T08:05:22;-12678.31;;;12.82;100.00
14594;BME280;7383;52.354;9.756;2023-03-18T08:07:48;-12679.97;;;12.92;100.00
14594;BME280;7383;52.354;9.756;2023-03-18T08:10:16;-12680.03;;;12.93;100.00
14594;BME280;7383;52.354;9.756;2023-03-18T08:12:42;-12679.69;;;12.91;100.00
14594;BME280;7383;52.354;9.756;2023-03-18T08:15:10;-12679.09;;;12.87;100.00
14594;BME280;7383;52.354;9.756;2023-03-18T08:17:36;-12679.53;;;12.90;100.00
14594;BME280;7383;52.354;9.756;2023-03-18T08:20:04;-12681.34;;;13.00;100.00
14594;BME280;7383;52.354;9.756;2023-03-18T08:22:31;-12684.56;;;13.19;100.00
14594;BME280;7383;52.354;9.756;2023-03-18T08:24:57;-12687.28;;;13.35;100.00
14594;BME280;7383;52.354;9.756;2023-03-18T08:27:25;-12689.00;;;13.45;100.00
14594;BME280;7383;52.354;9.756;2023-03-18T08:29:52;-12689.88;;;13.50;100.00
14594;BME280;7383;52.354;9.756;2023-03-18T08:32:18;-12690.22;;;13.52;100.00
14594;BME280;7383;52.354;9.756;2023-03-18T08:34:46;-12690.84;;;13.55;100.00
14594;BME280;7383;52.354;9.756;2023-03-18T08:37:12;-12692.13;;;13.63;100.00
14594;BME280;7383;52.354;9.756;2023-03-18T08:39:39;-12693.53;;;13.71;100.00
14594;BME280;7383;52.354;9.756;2023-03-18T08:42:09;-12695.44;;;13.82;100.00
14594;BME280;7383;52.354;9.756;2023-03-18T08:44:37;-12697.63;;;13.95;100.00
14594;BME280;7383;52.354;9.756;2023-03-18T08:47:04;-12698.75;;;14.01;100.00
14594;BME280;7383;52.354;9.756;2023-03-18T08:49:32;-12698.22;;;13.98;100.00
14594;BME280;7383;52.354;9.756;2023-03-18T08:51:58;-12699.53;;;14.06;100.00
14594;BME280;7383;52.354;9.756;2023-03-18T08:54:25;-12699.88;;;14.08;100.00
14594;BME280;7383;52.354;9.756;2023-03-18T08:56:52;-12699.69;;;14.07;100.00
14594;BME280;7383;52.354;9.756;2023-03-18T08:59:21;-12699.63;;;14.06;100.00
14594;BME280;7383;52.354;9.756;2023-03-18T09:01:49;-12699.34;;;14.05;100.00
14594;BME280;7383;52.354;9.756;2023-03-18T09:04:16;-12699.00;;;14.03;100.00
14594;BME280;7383;52.354;9.756;2023-03-18T09:06:42;-12697.88;;;13.96;100.00
14594;BME280;7383;52.354;9.756;2023-03-18T09:09:09;-12698.22;;;13.98;100.00
14594;BME280;7383;52.354;9.756;2023-03-18T09:11:36;-12698.66;;;14.01;100.00
14594;BME280;7383;52.354;9.756;2023-03-18T09:14:03;-12699.69;;;14.07;100.00
14594;BME280;7383;52.354;9.756;2023-03-18T09:16:29;-12701.09;;;14.15;100.00
14594;BME280;7383;52.354;9.756;2023-03-18T09:18:57;-12702.38;;;14.22;100.00
14594;BME280;7383;52.354;9.756;2023-03-18T09:21:23;-12704.03;;;14.32;100.00
14594;BME280;7383;52.354;9.756;2023-03-18T09:23:50;-12705.00;;;14.38;100.00
14594;BME280;7383;52.354;9.756;2023-03-18T09:26:16;-12705.16;;;14.39;100.00
14594;BME280;7383;52.354;9.756;2023-03-18T09:28:43;-12705.88;;;14.43;100.00
14594;BME280;7383;52.354;9.756;2023-03-18T09:31:09;-12706.72;;;14.48;100.00
14594;BME280;7383;52.354;9.756;2023-03-18T09:33:37;-12707.69;;;14.53;100.00
14594;BME280;7383;52.354;9.756;2023-03-18T09:36:05;-12708.03;;;14.55;100.00
14594;BME280;7383;52.354;9.756;2023-03-18T09:38:32;-12708.38;;;14.57;100.00
14594;BME280;7383;52.354;9.756;2023-03-18T09:41:04;-12709.00;;;14.61;100.00
14594;BME280;7383;52.354;9.756;2023-03-18T09:43:48;-12710.47;;;14.69;100.00
14594;BME280;7383;52.354;9.756;2023-03-18T09:46:22;-12712.03;;;14.78;100.00
14594;BME280;7383;52.354;9.756;2023-03-18T09:49:04;-12711.84;;;14.77;100.00
14594;BME280;7383;52.354;9.756;2023-03-18T09:51:46;-12710.72;;;14.71;100.00
14594;BME280;7383;52.354;9.756;2023-03-18T09:54:21;-12712.03;;;14.78;100.00
14594;BME280;7383;52.354;9.756;2023-03-18T09:56:50;-12712.13;;;14.79;100.00
14594;BME280;7383;52.354;9.756;2023-03-18T09:59:20;-12713.69;;;14.88;100.00
14594;BME280;7383;52.354;9.756;2023-03-18T10:01:51;-12714.38;;;14.92;100.00
14594;BME280;7383;52.354;9.756;2023-03-18T10:04:20;-12715.50;;;14.99;100.00
14594;BME280;7383;52.354;9.756;2023-03-18T10:06:53;-12716.00;;;15.02;100.00
14594;BME280;7383;52.354;9.756;2023-03-18T10:09:26;-12716.72;;;15.06;100.00
14594;BME280;7383;52.354;9.756;2023-03-18T10:11:58;-12717.66;;;15.11;100.00
14594;BME280;7383;52.354;9.756;2023-03-18T10:14:35;-12719.06;;;15.19;100.00
14594;BME280;7383;52.354;9.756;2023-03-18T10:17:12;-12719.47;;;15.22;100.00
14594;BME280;7383;52.354;9.756;2023-03-18T10:19:45;-12720.69;;;15.29;100.00
14594;BME280;7383;52.354;9.756;2023-03-18T10:22:26;-12721.47;;;15.34;100.00
14594;BME280;7383;52.354;9.756;2023-03-18T10:25:02;-12722.34;;;15.39;100.00
14594;BME280;7383;52.354;9.756;2023-03-18T10:27:41;-12724.16;;;15.49;100.00
14594;BME280;7383;52.354;9.756;2023-03-18T10:30:24;-12725.56;;;15.57;100.00
14594;BME280;7383;52.354;9.756;2023-03-18T10:33:00;-12725.56;;;15.57;100.00
14594;BME280;7383;52.354;9.756;2023-03-18T10:35:33;-12725.91;;;15.59;100.00
14594;BME280;7383;52.354;9.756;2023-03-18T10:38:11;-12727.19;;;15.67;100.00
14594;BME280;7383;52.354;9.756;2023-03-18T10:40:44;-12729.09;;;15.78;100.00
14594;BME280;7383;52.354;9.756;2023-03-18T10:43:14;-12731.69;;;15.93;100.00
14594;BME280;7383;52.354;9.756;2023-03-18T10:45:42;-12733.94;;;16.06;100.00
14594;BME280;7383;52.354;9.756;2023-03-18T10:48:14;-12735.00;;;16.12;100.00
14594;BME280;7383;52.354;9.756;2023-03-18T10:50:45;-12735.16;;;16.13;100.00
14594;BME280;7383;52.354;9.756;2023-03-18T10:53:21;-12734.22;;;16.08;100.00
14594;BME280;7383;52.354;9.756;2023-03-18T10:55:56;-12734.13;;;16.07;100.00
14594;BME280;7383;52.354;9.756;2023-03-18T10:58:25;-12733.19;;;16.02;100.00
14594;BME280;7383;52.354;9.756;2023-03-18T11:00:53;-12732.41;;;15.97;100.00
14594;BME280;7383;52.354;9.756;2023-03-18T11:03:23;-12732.56;;;15.98;100.00
14594;BME280;7383;52.354;9.756;2023-03-18T11:05:51;-12731.97;;;15.95;100.00
14594;BME280;7383;52.354;9.756;2023-03-18T11:08:31;-12731.19;;;15.90;100.00
14594;BME280;7383;52.354;9.756;2023-03-18T11:11:12;-12731.00;;;15.89;100.00
14594;BME280;7383;52.354;9.756;2023-03-18T11:13:45;-12730.56;;;15.87;100.00
14594;BME280;7383;52.354;9.756;2023-03-18T11:16:21;-12730.22;;;15.85;100.00
14594;BME280;7383;52.354;9.756;2023-03-18T11:18:50;-12730.56;;;15.87;100.00
14594;BME280;7383;52.354;9.756;2023-03-18T11:21:17;-12731.28;;;15.91;100.00
14594;BME280;7383;52.354;9.756;2023-03-18T11:23:52;-12732.22;;;15.96;100.00
14594;BME280;7383;52.354;9.756;2023-03-18T11:26:45;-12734.56;;;16.10;100.00
14594;BME280;7383;52.354;9.756;2023-03-18T11:29:15;-12738.03;;;16.30;100.00
14594;BME280;7383;52.354;9.756;2023-03-18T11:31:51;-12741.91;;;16.53;100.00
14594;BME280;7383;52.354;9.756;2023-03-18T11:34:19;-12744.25;;;16.66;100.00
14594;BME280;7383;52.354;9.756;2023-03-18T11:36:51;-12745.56;;;16.74;100.00
14594;BME280;7383;52.354;9.756;2023-03-18T11:39:21;-12745.47;;;16.73;100.00
14594;BME280;7383;52.354;9.756;2023-03-18T11:41:49;-12744.59;;;16.68;100.00
14594;BME280;7383;52.354;9.756;2023-03-18T11:44:17;-12743.38;;;16.61;100.00
14594;BME280;7383;52.354;9.756;2023-03-18T11:46:46;-12742.78;;;16.58;100.00
14594;BME280;7383;52.354;9.756;2023-03-18T11:49:17;-12742.69;;;16.57;100.00
14594;BME280;7383;52.354;9.756;2023-03-18T11:51:48;-12742.59;;;16.57;100.00
14594;BME280;7383;52.354;9.756;2023-03-18T11:54:25;-12743.66;;;16.63;100.00
14594;BME280;7383;52.354;9.756;2023-03-18T11:57:01;-12745.56;;;16.74;100.00
14594;BME280;7383;52.354;9.756;2023-03-18T11:59:36;-12749.53;;;16.97;100.00
14594;BME280;7383;52.354;9.756;2023-03-18T12:02:33;-12752.81;;;17.16;100.00
14594;BME280;7383;52.354;9.756;2023-03-18T12:08:11;-12758.00;;;17.47;100.00
14594;BME280;7383;52.354;9.756;2023-03-18T12:10:43;-12761.63;;;17.68;100.00
14594;BME280;7383;52.354;9.756;2023-03-18T12:13:25;-12765.69;;;17.92;100.00
14594;BME280;7383;52.354;9.756;2023-03-18T12:16:02;-12769.72;;;18.15;100.00
14594;BME280;7383;52.354;9.756;2023-03-18T12:21:29;-12778.59;;;18.67;100.00
14594;BME280;7383;52.354;9.756;2023-03-18T12:24:11;-12782.13;;;18.88;100.00
14594;BME280;7383;52.354;9.756;2023-03-18T12:26:50;-12776.72;;;18.56;100.00
14594;BME280;7383;52.354;9.756;2023-03-18T12:29:36;-12774.72;;;18.45;100.00
14594;BME280;7383;52.354;9.756;2023-03-18T12:32:11;-12777.75;;;18.62;100.00
14594;BME280;7383;52.354;9.756;2023-03-18T12:34:56;-12780.50;;;18.79;100.00
14594;BME280;7383;52.354;9.756;2023-03-18T12:37:31;-12784.91;;;19.04;100.00
14594;BME280;7383;52.354;9.756;2023-03-18T12:40:30;-12784.03;;;18.99;100.00
14594;BME280;7383;52.354;9.756;2023-03-18T12:43:17;-12788.50;;;19.26;100.00
14594;BME280;7383;52.354;9.756;2023-03-18T12:45:55;-12804.16;;;20.18;100.00
14594;BME280;7383;52.354;9.756;2023-03-18T12:48:24;-12809.75;;;20.50;100.00
14594;BME280;7383;52.354;9.756;2023-03-18T12:50:57;-12825.47;;;21.43;100.00
14594;BME280;7383;52.354;9.756;2023-03-18T12:53:29;-12868.25;;;23.95;100.00
14594;BME280;7383;52.354;9.756;2023-03-18T12:56:00;-12905.63;;;26.17;100.00
14594;BME280;7383;52.354;9.756;2023-03-18T12:58:34;-12938.72;;;28.14;100.00
14594;BME280;7383;52.354;9.756;2023-03-18T13:01:05;65156.72;;;-143.30;100.00
14594;BME280;7383;52.354;9.756;2023-03-18T13:03:34;65156.72;;;-143.30;100.00
14594;BME280;7383;52.354;9.756;2023-03-18T13:06:05;65156.72;;;-143.30;100.00
14594;BME280;7383;52.354;9.756;2023-03-18T13:08:48;65156.72;;;-143.30;100.00
14594;BME280;7383;52.354;9.756;2023-03-18T13:11:30;65156.72;;;-143.30;100.00